Terminal Aerodrome Forecast
Issued by NWS

Home | Current Version | Previous Version | Text Only | Print | Product List | Glossary Off
Versions: 1 2 3 4 5 6 7 8 9 10 11 12 13 14

843
FTUS43 KIWX 210536
TAFSBN
TAF
KSBN 210536Z 2106/2206 34006KT P6SM BKN250
     FM211500 34010KT P6SM BKN200
     FM211800 33013G18KT P6SM BKN150=

USA.gov is the U.S. government's official web portal to all federal, state and local government web resources and services.